Time;durP1;ratioP1;P1;durP2;ratioP2;P2;SDS_P1;SDS_P2;PMS_P1;PMS_P2;Temp;Humidity;BMP_temperature;BMP_pressure;BME280_temperature;BME280_humidity;BME280_pressure;Samples;Min_cycle;Max_cycle;Signal;HPM_P1;HPM_P2
2021/06/30 00:00:32;;;;;;;0.73;0.37;;;20.50;73.70;;;;;;2355943;52;20988;-67
2021/06/30 00:02:58;;;;;;;0.60;0.22;;;20.40;73.10;;;;;;2360319;52;20930;-67
2021/06/30 00:05:24;;;;;;;0.60;0.40;;;20.40;73.50;;;;;;2587584;52;21530;-68
2021/06/30 00:07:54;;;;;;;0.65;0.40;;;20.40;73.60;;;;;;2347635;53;21010;-67
2021/06/30 00:10:20;;;;;;;0.98;0.30;;;20.40;73.10;;;;;;2588998;52;21071;-67
2021/06/30 00:12:48;;;;;;;0.68;0.25;;;20.30;73.30;;;;;;2351523;53;20981;-67
2021/06/30 00:15:24;;;;;;;1.02;0.30;;;20.30;73.10;;;;;;2444230;52;21038;-67
2021/06/30 00:17:50;;;;;;;0.95;0.45;;;20.30;72.90;;;;;;2389492;53;21494;-67
2021/06/30 00:20:16;;;;;;;1.15;0.43;;;20.20;72.90;;;;;;2484543;52;21022;-67
2021/06/30 00:22:42;;;;;;;2.62;0.47;;;20.20;72.90;;;;;;2587480;52;20947;-67
2021/06/30 00:25:10;;;;;;;1.10;0.32;;;20.10;72.50;;;;;;2348142;53;20977;-68
2021/06/30 00:27:37;;;;;;;1.70;0.40;;;20.10;72.40;;;;;;2352302;53;20926;-67
2021/06/30 00:30:06;;;;;;;2.42;0.28;;;20.00;72.50;;;;;;2588406;52;21763;-67
2021/06/30 00:32:32;;;;;;;1.75;0.52;;;20.00;72.30;;;;;;2395804;52;21053;-67
2021/06/30 00:35:03;;;;;;;1.08;0.40;;;19.90;72.30;;;;;;2587349;52;20935;-68
2021/06/30 00:37:32;;;;;;;0.65;0.30;;;19.80;71.60;;;;;;2471239;52;20993;-68
2021/06/30 00:39:58;;;;;;;1.00;0.30;;;19.80;71.20;;;;;;2346470;53;20910;-68
2021/06/30 00:42:29;;;;;;;0.88;0.40;;;19.70;70.60;;;;;;2426998;53;21062;-68
2021/06/30 00:44:56;;;;;;;1.12;0.40;;;19.50;70.30;;;;;;2588840;52;20993;-68
2021/06/30 00:47:22;;;;;;;0.50;0.30;;;19.40;70.20;;;;;;2589584;52;22059;-69
2021/06/30 00:49:48;;;;;;;1.15;0.40;;;19.20;70.20;;;;;;2510687;52;20970;-68
2021/06/30 00:52:17;;;;;;;1.52;0.45;;;19.10;70.70;;;;;;2351406;53;21007;-69
2021/06/30 00:54:45;;;;;;;1.40;0.30;;;18.90;70.80;;;;;;2436766;52;20946;-69
2021/06/30 00:57:14;;;;;;;1.42;0.35;;;18.80;71.20;;;;;;2496016;52;20998;-69
2021/06/30 00:59:43;;;;;;;0.47;0.32;;;18.70;71.60;;;;;;2586758;52;20946;-70
2021/06/30 01:02:09;;;;;;;0.90;0.40;;;18.60;71.90;;;;;;2348280;53;20978;-70
2021/06/30 01:04:36;;;;;;;0.20;0.20;;;18.50;72.30;;;;;;2354991;53;21018;-70
2021/06/30 01:07:02;;;;;;;0.82;0.40;;;18.40;72.60;;;;;;2348357;53;20994;-72
2021/06/30 01:09:29;;;;;;;3.40;0.37;;;18.30;72.70;;;;;;2425042;52;21024;-73
2021/06/30 01:11:59;;;;;;;0.57;0.22;;;18.30;73.10;;;;;;2424168;52;21543;-73
2021/06/30 01:14:29;;;;;;;1.58;0.40;;;18.10;73.30;;;;;;2405757;52;20970;-72
2021/06/30 01:16:58;;;;;;;0.85;0.30;;;18.10;73.80;;;;;;2585668;52;21560;-72
2021/06/30 01:19:24;;;;;;;0.98;0.40;;;18.10;74.10;;;;;;2347661;53;20954;-72
2021/06/30 01:21:50;;;;;;;0.73;0.30;;;18.00;74.40;;;;;;2348626;53;20985;-72
2021/06/30 01:24:17;;;;;;;1.83;0.40;;;18.00;74.70;;;;;;2365434;53;21266;-73
2021/06/30 01:26:43;;;;;;;0.70;0.40;;;18.00;74.80;;;;;;2588143;52;20963;-73
2021/06/30 01:29:10;;;;;;;0.82;0.40;;;18.00;75.00;;;;;;2373631;53;21013;-72
2021/06/30 01:31:36;;;;;;;1.15;0.40;;;18.00;75.00;;;;;;2356469;53;20951;-75
2021/06/30 01:34:03;;;;;;;0.88;0.30;;;17.90;75.10;;;;;;2410442;53;21006;-74
2021/06/30 01:36:29;;;;;;;0.98;0.40;;;17.90;75.20;;;;;;2348846;53;21074;-73
2021/06/30 01:38:55;;;;;;;5.60;1.50;;;17.90;75.40;;;;;;2348091;53;20974;-73
2021/06/30 01:41:21;;;;;;;3.35;0.70;;;17.90;75.60;;;;;;2356650;53;20991;-75
2021/06/30 01:43:49;;;;;;;1.42;0.50;;;17.90;75.60;;;;;;2455685;52;20954;-73
2021/06/30 01:46:15;;;;;;;2.30;0.57;;;17.80;75.60;;;;;;2349398;53;20954;-71
2021/06/30 01:48:47;;;;;;;1.05;0.60;;;17.80;75.60;;;;;;2348228;53;21002;-72
2021/06/30 01:51:14;;;;;;;0.90;0.47;;;17.80;75.70;;;;;;2329315;53;20958;-74
2021/06/30 01:53:41;;;;;;;2.00;0.60;;;17.80;76.00;;;;;;2479244;52;20970;-74
2021/06/30 01:56:07;;;;;;;1.10;0.50;;;17.80;76.20;;;;;;2349732;53;20956;-74
2021/06/30 01:58:33;;;;;;;1.90;0.80;;;17.80;76.20;;;;;;2554953;52;21010;-74
2021/06/30 02:00:59;;;;;;;1.70;0.50;;;17.70;76.10;;;;;;2351367;53;20990;-73
2021/06/30 02:03:25;;;;;;;0.65;0.40;;;17.70;76.10;;;;;;2348411;53;20950;-71
2021/06/30 02:05:52;;;;;;;0.62;0.32;;;17.70;76.10;;;;;;2347474;53;21407;-74
2021/06/30 02:08:18;;;;;;;1.25;0.40;;;17.70;76.20;;;;;;2385647;52;21001;-73
2021/06/30 02:10:44;;;;;;;0.85;0.40;;;17.70;76.30;;;;;;2587660;52;21506;-73
2021/06/30 02:13:11;;;;;;;0.85;0.40;;;17.70;76.30;;;;;;2587985;52;20946;-74
2021/06/30 02:15:38;;;;;;;0.52;0.30;;;17.70;76.40;;;;;;2589954;52;20971;-71
2021/06/30 02:18:06;;;;;;;0.50;0.30;;;17.70;76.50;;;;;;2392783;53;20981;-72
2021/06/30 02:20:32;;;;;;;0.77;0.35;;;17.70;76.60;;;;;;2369660;52;21021;-72
2021/06/30 02:22:59;;;;;;;0.80;0.40;;;17.70;76.50;;;;;;2586262;52;20990;-72
2021/06/30 02:25:28;;;;;;;2.03;0.60;;;17.70;76.60;;;;;;2577270;52;20889;-70
2021/06/30 02:27:54;;;;;;;1.52;0.47;;;17.70;76.50;;;;;;2349386;53;20975;-72
2021/06/30 02:30:25;;;;;;;0.85;0.40;;;17.70;76.60;;;;;;2482386;52;21842;-74
2021/06/30 02:32:52;;;;;;;0.60;0.30;;;17.70;76.70;;;;;;2346930;53;20998;-73
2021/06/30 02:35:21;;;;;;;0.77;0.40;;;17.70;76.60;;;;;;2390713;53;20918;-69
2021/06/30 02:37:49;;;;;;;2.45;0.50;;;17.70;76.40;;;;;;2356183;53;20998;-72
2021/06/30 02:40:15;;;;;;;1.83;0.40;;;17.70;76.30;;;;;;2526380;52;20934;-72
2021/06/30 02:42:43;;;;;;;1.05;0.43;;;17.70;76.20;;;;;;2447591;53;21545;-70
2021/06/30 02:45:10;;;;;;;3.00;0.60;;;17.70;76.20;;;;;;2485393;52;20954;-73
2021/06/30 02:47:37;;;;;;;1.85;0.77;;;17.70;76.20;;;;;;2387800;53;20958;-73
2021/06/30 02:50:06;;;;;;;1.60;0.37;;;17.70;76.10;;;;;;2588762;52;21485;-72
2021/06/30 02:52:32;;;;;;;1.00;0.50;;;17.70;76.30;;;;;;2352329;53;20998;-70
2021/06/30 02:54:59;;;;;;;1.45;0.60;;;17.60;76.20;;;;;;2484196;52;20966;-72
2021/06/30 02:57:25;;;;;;;0.82;0.32;;;17.60;76.30;;;;;;2586323;52;20978;-69
2021/06/30 02:59:51;;;;;;;0.82;0.30;;;17.60;76.40;;;;;;2370522;53;20950;-71
2021/06/30 03:02:17;;;;;;;0.90;0.50;;;17.60;76.40;;;;;;2491106;52;21015;-68
2021/06/30 03:04:44;;;;;;;0.85;0.40;;;17.60;76.50;;;;;;2452878;52;21101;-69
2021/06/30 03:07:10;;;;;;;1.02;0.45;;;17.60;76.60;;;;;;2534026;52;21117;-69
2021/06/30 03:09:37;;;;;;;1.05;0.50;;;17.60;76.60;;;;;;2589430;52;21022;-69
2021/06/30 03:12:04;;;;;;;0.88;0.47;;;17.60;76.60;;;;;;2583534;52;21034;-69
2021/06/30 03:14:31;;;;;;;1.00;0.40;;;17.60;76.60;;;;;;2424961;52;20926;-71
2021/06/30 03:16:58;;;;;;;1.40;0.50;;;17.60;76.60;;;;;;2504579;52;21030;-72
2021/06/30 03:19:24;;;;;;;0.98;0.40;;;17.60;76.60;;;;;;2575796;52;21018;-69
2021/06/30 03:21:50;;;;;;;0.80;0.40;;;17.60;76.50;;;;;;2348043;53;20947;-71
2021/06/30 03:24:19;;;;;;;0.90;0.47;;;17.50;76.40;;;;;;2419852;52;21022;-69
2021/06/30 03:26:45;;;;;;;1.33;0.50;;;17.60;76.50;;;;;;2406401;52;21842;-68
2021/06/30 03:29:11;;;;;;;0.88;0.40;;;17.60;76.60;;;;;;2457440;52;20930;-69
2021/06/30 03:31:37;;;;;;;0.75;0.40;;;17.60;76.60;;;;;;2430429;52;20949;-70
2021/06/30 03:34:04;;;;;;;1.00;0.40;;;17.60;76.60;;;;;;2588632;52;21804;-69
2021/06/30 03:36:31;;;;;;;0.88;0.50;;;17.60;76.70;;;;;;2587796;52;20993;-68
2021/06/30 03:38:57;;;;;;;1.80;0.60;;;17.60;76.70;;;;;;2587752;52;21783;-68
2021/06/30 03:41:24;;;;;;;0.65;0.30;;;17.60;76.70;;;;;;2430886;52;21885;-70
2021/06/30 03:43:50;;;;;;;0.60;0.37;;;17.50;76.70;;;;;;2586002;52;20931;-69
2021/06/30 03:46:16;;;;;;;1.10;0.52;;;17.50;76.60;;;;;;2560658;52;21338;-71
2021/06/30 03:48:43;;;;;;;1.55;0.60;;;17.50;76.60;;;;;;2588587;52;21531;-70
2021/06/30 03:51:10;;;;;;;1.08;0.50;;;17.50;76.50;;;;;;2586491;52;20966;-69
2021/06/30 03:53:37;;;;;;;1.85;0.50;;;17.50;76.60;;;;;;2364404;52;21787;-71
2021/06/30 03:56:04;;;;;;;0.90;0.30;;;17.50;76.50;;;;;;2509281;52;21463;-71
2021/06/30 03:58:32;;;;;;;1.20;0.50;;;17.50;76.50;;;;;;2486349;52;20945;-72
2021/06/30 04:01:01;;;;;;;0.90;0.40;;;17.50;76.50;;;;;;2349401;53;21013;-69
2021/06/30 04:03:27;;;;;;;1.90;0.30;;;17.50;76.50;;;;;;2347478;53;21515;-70
2021/06/30 04:05:53;;;;;;;0.93;0.50;;;17.50;76.70;;;;;;2433603;52;20934;-71
2021/06/30 04:08:19;;;;;;;0.45;0.37;;;17.50;76.70;;;;;;2585961;52;20989;-69
2021/06/30 04:10:46;;;;;;;2.42;0.50;;;17.50;76.70;;;;;;2347532;53;21054;-70
2021/06/30 04:13:16;;;;;;;2.17;0.40;;;17.50;76.50;;;;;;2587530;52;21006;-69
2021/06/30 04:15:45;;;;;;;3.30;0.50;;;17.50;76.50;;;;;;2359840;52;20970;-68
2021/06/30 04:18:12;;;;;;;1.30;0.60;;;17.50;76.70;;;;;;2586837;52;21091;-69
2021/06/30 04:20:42;;;;;;;0.80;0.40;;;17.50;76.60;;;;;;2586452;52;21026;-69
2021/06/30 04:23:09;;;;;;;1.20;0.50;;;17.50;76.60;;;;;;2418238;52;21567;-68
2021/06/30 04:25:36;;;;;;;0.60;0.32;;;17.50;76.60;;;;;;2354040;53;21094;-70
2021/06/30 04:28:02;;;;;;;4.37;0.50;;;17.50;76.60;;;;;;2586487;52;21495;-69
2021/06/30 04:30:28;;;;;;;1.80;0.70;;;17.40;76.60;;;;;;2395049;52;21006;-71
2021/06/30 04:32:55;;;;;;;1.65;0.60;;;17.50;76.70;;;;;;2427916;52;20954;-70
2021/06/30 04:35:22;;;;;;;0.90;0.40;;;17.50;76.80;;;;;;2384447;52;20942;-70
2021/06/30 04:37:48;;;;;;;0.65;0.40;;;17.50;76.90;;;;;;2332050;53;22022;-69
2021/06/30 04:40:20;;;;;;;0.55;0.30;;;17.50;76.80;;;;;;2563834;52;20951;-72
2021/06/30 04:42:46;;;;;;;0.68;0.40;;;17.50;76.60;;;;;;2363422;53;21963;-72
2021/06/30 04:45:12;;;;;;;0.55;0.40;;;17.50;76.80;;;;;;2348823;52;20929;-72
2021/06/30 04:47:38;;;;;;;0.77;0.32;;;17.50;76.80;;;;;;2521940;52;21579;-69
2021/06/30 04:50:05;;;;;;;1.15;0.50;;;17.50;76.70;;;;;;2492368;52;21001;-68
2021/06/30 04:52:31;;;;;;;1.67;0.52;;;17.50;76.70;;;;;;2562218;52;21153;-71
2021/06/30 04:54:57;;;;;;;1.42;0.50;;;17.50;76.80;;;;;;2363267;52;20952;-70
2021/06/30 04:57:26;;;;;;;1.08;0.47;;;17.60;76.80;;;;;;2492475;52;20928;-70
2021/06/30 04:59:53;;;;;;;0.77;0.40;;;17.50;76.60;;;;;;2469259;53;21917;-71
2021/06/30 05:02:19;;;;;;;1.45;0.57;;;17.50;76.80;;;;;;2587017;52;21029;-69
2021/06/30 05:04:46;;;;;;;0.37;0.30;;;17.50;76.70;;;;;;2349223;53;21017;-70
2021/06/30 05:07:12;;;;;;;1.40;0.50;;;17.50;76.70;;;;;;2503808;52;21883;-70
2021/06/30 05:09:40;;;;;;;0.70;0.30;;;17.50;76.70;;;;;;2467332;52;21026;-71
2021/06/30 05:12:07;;;;;;;2.85;0.50;;;17.50;76.60;;;;;;2345335;53;21542;-70
2021/06/30 05:14:34;;;;;;;1.02;0.47;;;17.50;76.40;;;;;;2581195;52;21071;-68
2021/06/30 05:17:01;;;;;;;0.85;0.40;;;17.40;76.20;;;;;;2534598;52;20983;-70
2021/06/30 05:19:30;;;;;;;0.70;0.40;;;17.40;76.10;;;;;;2490030;52;20986;-72
2021/06/30 05:21:57;;;;;;;1.55;0.60;;;17.40;76.10;;;;;;2418895;53;21282;-72
2021/06/30 05:24:25;;;;;;;1.00;0.50;;;17.40;76.40;;;;;;2586638;52;20979;-73
2021/06/30 05:26:51;;;;;;;0.80;0.40;;;17.40;76.50;;;;;;2486036;52;21002;-71
2021/06/30 05:29:17;;;;;;;0.88;0.50;;;17.40;76.60;;;;;;2561275;52;20964;-71
2021/06/30 05:31:44;;;;;;;0.85;0.45;;;17.40;76.60;;;;;;2363872;53;21534;-71
2021/06/30 05:34:10;;;;;;;0.95;0.50;;;17.40;76.50;;;;;;2366080;52;1360301;-72
2021/06/30 05:36:40;;;;;;;0.98;0.50;;;17.30;76.40;;;;;;2563788;52;21693;-71
2021/06/30 05:39:06;;;;;;;1.90;0.50;;;17.30;76.30;;;;;;2588006;52;21010;-72
2021/06/30 05:41:32;;;;;;;0.75;0.40;;;17.30;76.50;;;;;;2431066;52;21650;-72
2021/06/30 05:43:58;;;;;;;0.47;0.30;;;17.30;76.60;;;;;;2354192;52;21057;-69
2021/06/30 05:46:27;;;;;;;0.88;0.40;;;17.30;77.50;;;;;;2369065;53;20980;-69
2021/06/30 05:48:54;;;;;;;1.10;0.50;;;17.30;76.80;;;;;;2385245;52;21018;-70
2021/06/30 05:51:20;;;;;;;2.70;0.55;;;17.30;76.80;;;;;;2399203;52;21850;-72
2021/06/30 05:53:46;;;;;;;0.90;0.45;;;17.30;76.90;;;;;;2467996;52;20934;-71
2021/06/30 05:56:12;;;;;;;1.15;0.60;;;17.30;77.00;;;;;;2347596;53;21779;-71
2021/06/30 05:58:38;;;;;;;3.03;0.60;;;17.20;77.10;;;;;;2354650;53;21029;-70
2021/06/30 06:01:07;;;;;;;0.45;0.30;;;17.30;77.40;;;;;;2366538;53;20971;-70
2021/06/30 06:03:33;;;;;;;2.28;0.50;;;17.30;77.50;;;;;;2389874;52;20981;-72
2021/06/30 06:06:01;;;;;;;1.73;0.60;;;17.30;77.70;;;;;;2444419;52;20955;-70
2021/06/30 06:08:27;;;;;;;1.08;0.50;;;17.30;77.70;;;;;;2352523;53;21030;-70
2021/06/30 06:10:53;;;;;;;1.37;0.62;;;17.40;77.60;;;;;;2588404;52;21069;-71
2021/06/30 06:13:19;;;;;;;0.93;0.43;;;17.40;77.60;;;;;;2591522;52;21924;-71
2021/06/30 06:15:45;;;;;;;1.45;0.60;;;17.40;77.60;;;;;;2588646;52;21000;-68
2021/06/30 06:18:14;;;;;;;1.20;0.60;;;17.40;77.50;;;;;;2352389;53;21062;-70
2021/06/30 06:20:43;;;;;;;1.12;0.40;;;17.40;77.50;;;;;;2355088;53;20926;-72
2021/06/30 06:23:09;;;;;;;1.30;0.60;;;17.50;77.60;;;;;;2373496;52;21010;-68
2021/06/30 06:25:36;;;;;;;1.92;0.62;;;17.50;77.70;;;;;;2589836;52;20937;-69
2021/06/30 06:28:04;;;;;;;0.75;0.40;;;17.50;77.60;;;;;;2352568;53;21026;-71
2021/06/30 06:30:31;;;;;;;1.48;0.57;;;17.50;77.70;;;;;;2584597;52;20970;-71
2021/06/30 06:32:57;;;;;;;2.50;0.60;;;17.50;77.70;;;;;;2586975;52;20991;-73
2021/06/30 06:35:23;;;;;;;1.50;0.50;;;17.60;77.70;;;;;;2520124;52;20949;-68
2021/06/30 06:37:50;;;;;;;1.02;0.52;;;17.60;77.60;;;;;;2348913;53;21057;-70
2021/06/30 06:40:16;;;;;;;1.27;0.50;;;17.60;77.50;;;;;;2349377;53;20942;-69
2021/06/30 06:42:42;;;;;;;1.33;0.47;;;17.60;77.80;;;;;;2350559;53;20997;-67
2021/06/30 06:45:09;;;;;;;1.75;0.60;;;17.70;77.80;;;;;;2481584;53;21057;-69
2021/06/30 06:47:36;;;;;;;0.90;0.43;;;17.70;77.70;;;;;;2587587;52;21830;-69
2021/06/30 06:50:04;;;;;;;1.50;0.60;;;17.70;77.40;;;;;;2351981;53;20923;-70
2021/06/30 06:52:30;;;;;;;1.52;0.60;;;17.80;77.40;;;;;;2443757;52;20963;-68
2021/06/30 06:54:57;;;;;;;0.90;0.50;;;17.80;77.50;;;;;;2588244;52;20950;-68
2021/06/30 06:57:24;;;;;;;0.80;0.40;;;17.80;77.40;;;;;;2587833;52;20928;-69
2021/06/30 06:59:52;;;;;;;2.00;0.50;;;17.80;77.20;;;;;;2587162;52;20998;-72
2021/06/30 07:02:19;;;;;;;0.90;0.50;;;17.80;77.20;;;;;;2398859;52;21002;-70
2021/06/30 07:04:48;;;;;;;0.77;0.40;;;17.80;77.10;;;;;;2586634;52;20962;-71
2021/06/30 07:07:17;;;;;;;1.23;0.50;;;17.80;76.80;;;;;;2588517;52;21035;-69
2021/06/30 07:09:44;;;;;;;3.45;0.50;;;17.80;76.80;;;;;;2442490;52;20950;-72
2021/06/30 07:12:10;;;;;;;0.88;0.45;;;17.80;76.90;;;;;;2416244;52;21240;-70
2021/06/30 07:14:37;;;;;;;1.33;0.47;;;17.80;76.90;;;;;;2367851;52;20955;-70
2021/06/30 07:17:04;;;;;;;0.52;0.37;;;17.80;77.00;;;;;;2400871;53;20974;-71
2021/06/30 07:19:30;;;;;;;0.85;0.45;;;17.80;77.20;;;;;;2501402;52;20975;-71
2021/06/30 07:21:56;;;;;;;0.65;0.40;;;17.80;77.20;;;;;;2601532;52;20941;-69
2021/06/30 07:24:23;;;;;;;0.75;0.50;;;17.90;77.30;;;;;;2348053;53;20930;-70
2021/06/30 07:26:49;;;;;;;1.58;0.52;;;17.90;77.60;;;;;;2350374;53;20938;-68
2021/06/30 07:29:15;;;;;;;0.75;0.50;;;17.90;77.50;;;;;;2347226;53;20986;-70
2021/06/30 07:31:44;;;;;;;0.90;0.40;;;17.90;77.60;;;;;;2349067;53;21733;-69
2021/06/30 07:34:10;;;;;;;0.62;0.40;;;18.00;78.00;;;;;;2534155;52;20994;-67
2021/06/30 07:36:36;;;;;;;1.00;0.43;;;18.10;78.20;;;;;;2388084;53;21546;-72
2021/06/30 07:39:03;;;;;;;1.00;0.50;;;18.00;78.00;;;;;;2589263;52;21050;-69
2021/06/30 07:41:30;;;;;;;1.48;0.50;;;18.10;78.00;;;;;;2350769;53;21018;-70
2021/06/30 07:43:57;;;;;;;1.85;0.45;;;18.10;77.90;;;;;;2349084;53;20959;-70
2021/06/30 07:46:25;;;;;;;0.80;0.50;;;18.20;77.90;;;;;;2351054;53;21023;-69
2021/06/30 07:48:51;;;;;;;1.80;0.50;;;18.20;77.50;;;;;;2587460;52;20924;-68
2021/06/30 07:51:18;;;;;;;2.25;0.60;;;18.30;77.10;;;;;;2355158;53;20971;-67
2021/06/30 07:53:45;;;;;;;1.27;0.40;;;18.30;77.30;;;;;;2348584;53;20914;-70
2021/06/30 07:56:33;;;;;;;1.40;0.52;;;18.30;77.40;;;;;;2350016;53;20943;-70
2021/06/30 07:59:09;;;;;;;1.80;0.65;;;18.30;76.50;;;;;;2563785;52;20931;-69
2021/06/30 08:01:36;;;;;;;1.58;0.70;;;18.40;76.30;;;;;;2353083;53;20937;-68
2021/06/30 08:04:03;;;;;;;1.25;0.60;;;18.40;76.20;;;;;;2455797;52;21041;-71
2021/06/30 08:06:29;;;;;;;1.50;0.50;;;18.40;76.30;;;;;;2354806;53;20918;-69
2021/06/30 08:08:56;;;;;;;2.28;0.50;;;18.40;76.40;;;;;;2354463;53;21711;-70
2021/06/30 08:11:25;;;;;;;1.25;0.50;;;18.40;76.80;;;;;;2349245;53;20998;-71
2021/06/30 08:13:52;;;;;;;2.12;0.57;;;18.50;77.00;;;;;;2347942;53;20989;-68
2021/06/30 08:16:18;;;;;;;3.05;0.60;;;18.50;76.80;;;;;;2350742;53;21528;-68
2021/06/30 08:18:44;;;;;;;1.05;0.50;;;18.50;76.60;;;;;;2358012;53;21006;-71
2021/06/30 08:21:12;;;;;;;1.05;0.40;;;18.50;76.60;;;;;;2353532;53;21002;-70
2021/06/30 08:23:44;;;;;;;1.50;0.70;;;18.50;76.50;;;;;;2352382;53;21490;-69
2021/06/30 08:26:12;;;;;;;0.80;0.40;;;18.50;76.50;;;;;;2348838;53;20954;-70
2021/06/30 08:28:38;;;;;;;1.25;0.50;;;18.60;76.80;;;;;;2349534;53;21009;-71
2021/06/30 08:31:04;;;;;;;1.37;0.30;;;18.60;76.90;;;;;;2589096;52;20958;-69
2021/06/30 08:33:30;;;;;;;1.00;0.40;;;18.60;76.60;;;;;;2587995;52;21262;-67
2021/06/30 08:35:57;;;;;;;1.27;0.50;;;18.70;76.60;;;;;;2492341;52;20926;-68
2021/06/30 08:38:23;;;;;;;1.50;0.60;;;18.70;76.40;;;;;;2330876;53;21819;-70
2021/06/30 08:40:56;;;;;;;3.22;1.48;;;18.70;76.30;;;;;;2350507;53;21014;-66
2021/06/30 08:43:25;;;;;;;2.85;0.70;;;18.70;76.20;;;;;;2350976;53;20918;-69
2021/06/30 08:45:51;;;;;;;2.25;0.70;;;18.70;76.60;;;;;;2348980;53;21057;-69
2021/06/30 08:48:18;;;;;;;1.23;0.60;;;18.80;76.80;;;;;;2348377;53;21002;-69
2021/06/30 08:50:44;;;;;;;2.55;0.70;;;18.80;77.00;;;;;;2350225;53;21822;-69
2021/06/30 08:53:12;;;;;;;1.73;0.60;;;18.80;76.90;;;;;;2589632;52;20987;-69
2021/06/30 08:55:42;;;;;;;2.30;0.60;;;18.90;77.10;;;;;;2348947;53;21046;-69
2021/06/30 08:58:09;;;;;;;1.25;0.60;;;18.90;77.10;;;;;;2350758;53;21113;-68
2021/06/30 09:00:37;;;;;;;1.02;0.52;;;19.00;77.40;;;;;;2351933;53;21082;-67
2021/06/30 09:03:07;;;;;;;1.70;0.62;;;19.00;77.70;;;;;;2348914;53;21793;-71
2021/06/30 09:05:49;;;;;;;1.70;0.60;;;19.10;77.60;;;;;;2351935;53;20931;-68
2021/06/30 09:08:15;;;;;;;2.42;0.70;;;19.20;77.50;;;;;;2348717;53;21483;-69
2021/06/30 09:10:41;;;;;;;3.12;0.85;;;19.30;77.40;;;;;;2531825;52;20970;-69
2021/06/30 09:13:19;;;;;;;1.50;0.70;;;19.30;76.80;;;;;;2348948;53;22011;-69
2021/06/30 09:15:58;;;;;;;1.52;0.62;;;19.30;76.20;;;;;;2354155;53;20951;-68
2021/06/30 09:18:30;;;;;;;2.22;0.62;;;19.40;76.30;;;;;;2330592;53;20994;-69
2021/06/30 09:21:32;;;;;;;1.80;0.63;;;19.50;76.50;;;;;;2332315;53;21541;-71
2021/06/30 09:24:20;;;;;;;1.40;0.50;;;19.60;75.60;;;;;;2353598;53;21229;-69
2021/06/30 09:26:54;;;;;;;1.20;0.50;;;19.50;74.90;;;;;;2330249;54;20888;-70
2021/06/30 09:29:20;;;;;;;0.88;0.50;;;19.50;75.70;;;;;;2329818;54;21983;-68
2021/06/30 09:31:50;;;;;;;1.45;0.70;;;19.60;75.60;;;;;;2573792;52;20977;-70
2021/06/30 09:34:25;;;;;;;1.90;0.80;;;19.60;75.70;;;;;;2349189;53;21009;-69
2021/06/30 09:37:05;;;;;;;3.30;0.80;;;19.60;75.30;;;;;;2347844;53;20987;-66
2021/06/30 09:39:36;;;;;;;1.45;0.73;;;19.60;75.60;;;;;;2349205;53;21027;-69
2021/06/30 09:42:13;;;;;;;2.08;0.80;;;19.70;75.50;;;;;;2555956;52;21042;-72
2021/06/30 09:44:41;;;;;;;1.45;0.60;;;19.60;74.60;;;;;;2352336;53;21533;-68
2021/06/30 09:47:07;;;;;;;2.08;0.65;;;19.60;75.10;;;;;;2350190;53;20982;-69
2021/06/30 09:49:36;;;;;;;1.65;0.52;;;19.60;75.20;;;;;;2360648;53;20982;-71
2021/06/30 09:52:13;;;;;;;1.40;0.60;;;19.60;75.40;;;;;;2446474;52;20974;-67
2021/06/30 09:54:40;;;;;;;2.33;0.70;;;19.60;75.00;;;;;;2350957;53;21049;-69
2021/06/30 09:57:08;;;;;;;2.22;0.70;;;19.60;75.30;;;;;;2351641;53;20962;-68
2021/06/30 09:59:47;;;;;;;1.30;0.60;;;19.60;75.30;;;;;;2348939;53;21017;-67
2021/06/30 10:02:23;;;;;;;1.35;0.60;;;19.50;74.90;;;;;;2353946;53;20955;-70
2021/06/30 10:04:57;;;;;;;3.28;0.55;;;19.50;75.20;;;;;;2354313;53;20962;-70
2021/06/30 10:07:24;;;;;;;1.50;0.50;;;19.50;75.30;;;;;;2348409;53;21029;-69
2021/06/30 10:10:11;;;;;;;0.73;0.40;;;19.50;75.90;;;;;;2352667;53;21041;-71
2021/06/30 10:12:39;;;;;;;1.15;0.47;;;19.50;75.90;;;;;;2347021;53;21031;-69
2021/06/30 10:15:07;;;;;;;2.15;0.70;;;19.50;76.50;;;;;;2351782;53;21013;-72
2021/06/30 10:17:35;;;;;;;1.00;0.50;;;19.50;76.40;;;;;;2349098;53;21507;-70
2021/06/30 10:20:02;;;;;;;1.58;0.68;;;19.50;76.60;;;;;;2352181;53;20994;-68
2021/06/30 10:22:29;;;;;;;1.65;0.60;;;19.60;76.80;;;;;;2346224;53;20970;-68
2021/06/30 10:24:55;;;;;;;2.62;0.70;;;19.60;76.90;;;;;;2594474;52;21079;-68
2021/06/30 10:27:22;;;;;;;1.58;0.80;;;19.60;77.10;;;;;;2348262;53;21049;-68
2021/06/30 10:29:52;;;;;;;2.67;0.80;;;19.70;77.30;;;;;;2589187;52;21009;-68
2021/06/30 10:32:20;;;;;;;1.48;0.60;;;19.70;77.00;;;;;;2346736;53;20938;-70
2021/06/30 10:34:52;;;;;;;1.65;0.70;;;19.70;76.90;;;;;;2484723;52;21800;-66
2021/06/30 10:37:31;;;;;;;2.05;0.62;;;19.80;77.00;;;;;;2481426;52;21487;-71
2021/06/30 10:40:11;;;;;;;1.83;0.65;;;19.80;76.30;;;;;;2348205;53;20937;-69
2021/06/30 10:42:39;;;;;;;2.72;1.00;;;19.90;77.20;;;;;;2346513;53;20937;-68
2021/06/30 10:45:27;;;;;;;3.12;0.82;;;20.00;77.80;;;;;;2346023;54;21532;-68
2021/06/30 10:48:13;;;;;;;1.30;0.60;;;20.00;77.00;;;;;;2350965;53;20946;-69
2021/06/30 10:50:43;;;;;;;1.35;0.60;;;20.10;76.80;;;;;;2350714;53;21455;-70
2021/06/30 10:53:55;;;;;;;1.55;0.60;;;20.20;77.50;;;;;;2347848;53;21452;-68
2021/06/30 10:56:30;;;;;;;7.03;0.80;;;20.20;76.10;;;;;;2349195;53;20967;-72
2021/06/30 10:59:00;;;;;;;0.82;0.50;;;20.30;76.50;;;;;;2426471;52;20991;-68
2021/06/30 11:01:28;;;;;;;1.95;0.70;;;20.30;76.40;;;;;;2348010;53;20981;-70
2021/06/30 11:04:01;;;;;;;1.85;0.80;;;20.40;76.60;;;;;;2561413;52;20911;-68
2021/06/30 11:06:29;;;;;;;2.05;0.70;;;20.40;76.40;;;;;;2567063;52;21039;-70
2021/06/30 11:09:06;;;;;;;2.03;0.70;;;20.50;76.20;;;;;;2349442;53;21430;-71
2021/06/30 11:11:54;;;;;;;2.12;0.70;;;20.50;75.90;;;;;;2351691;53;21034;-68
2021/06/30 11:14:23;;;;;;;2.97;0.60;;;20.60;75.40;;;;;;2347126;53;21033;-67
2021/06/30 11:16:50;;;;;;;1.67;0.60;;;20.60;76.10;;;;;;2350789;53;21820;-68
2021/06/30 11:19:39;;;;;;;3.28;0.55;;;20.70;75.50;;;;;;2347416;53;20991;-70
2021/06/30 11:22:07;;;;;;;1.70;0.50;;;20.70;74.50;;;;;;2351667;53;20979;-70
2021/06/30 11:24:52;;;;;;;1.80;0.52;;;20.70;76.00;;;;;;2348875;53;20959;-69
2021/06/30 11:27:40;;;;;;;1.92;0.65;;;20.80;73.80;;;;;;2588361;52;21048;-67
2021/06/30 11:30:08;;;;;;;1.58;0.70;;;20.80;74.20;;;;;;2347640;53;21033;-68
2021/06/30 11:32:44;;;;;;;2.22;0.50;;;20.80;75.00;;;;;;2416556;52;21097;-68
2021/06/30 11:35:32;;;;;;;0.98;0.40;;;20.80;75.20;;;;;;2342787;53;21842;-67
2021/06/30 11:38:12;;;;;;;0.95;0.50;;;20.80;73.50;;;;;;2347906;53;20943;-68
2021/06/30 11:41:05;;;;;;;1.20;0.52;;;20.90;74.20;;;;;;2324148;54;20970;-68
2021/06/30 11:43:39;;;;;;;1.23;0.43;;;20.90;73.50;;;;;;2345997;53;20954;-68
2021/06/30 11:46:08;;;;;;;2.28;0.50;;;20.90;74.90;;;;;;2352105;53;21778;-68
2021/06/30 11:48:36;;;;;;;1.92;0.75;;;21.00;75.40;;;;;;2349774;53;20973;-71
2021/06/30 11:51:38;;;;;;;2.37;0.70;;;21.00;74.90;;;;;;2518112;52;21030;-69
2021/06/30 11:54:14;;;;;;;1.90;0.60;;;21.10;74.80;;;;;;2350030;53;21018;-71
2021/06/30 11:56:41;;;;;;;1.35;0.50;;;21.10;74.00;;;;;;2353343;53;21523;-68
2021/06/30 11:59:15;;;;;;;1.08;0.45;;;21.10;74.20;;;;;;2588752;52;21038;-69
2021/06/30 12:01:42;;;;;;;1.40;0.50;;;21.20;73.90;;;;;;2455666;52;21006;-72
2021/06/30 12:04:16;;;;;;;1.62;0.40;;;21.20;74.50;;;;;;2353381;53;20938;-68
2021/06/30 12:06:45;;;;;;;1.20;0.50;;;21.20;74.60;;;;;;2352997;53;21033;-70
2021/06/30 12:09:18;;;;;;;1.33;0.50;;;21.30;74.80;;;;;;2348290;53;20951;-69
2021/06/30 12:11:56;;;;;;;2.45;0.57;;;21.30;74.10;;;;;;2350763;53;20966;-68
2021/06/30 12:14:29;;;;;;;1.95;0.60;;;21.30;74.30;;;;;;2353332;53;21018;-68
2021/06/30 12:17:07;;;;;;;2.33;0.60;;;21.40;74.10;;;;;;2331719;53;20970;-68
2021/06/30 12:19:54;;;;;;;1.08;0.50;;;21.40;72.70;;;;;;2380624;53;20982;-67
2021/06/30 12:22:45;;;;;;;1.35;0.57;;;21.40;72.20;;;;;;2353581;53;21851;-68
2021/06/30 12:25:24;;;;;;;0.82;0.40;;;21.40;73.10;;;;;;2342268;53;21022;-68
2021/06/30 12:27:52;;;;;;;1.25;0.60;;;21.50;73.70;;;;;;2344377;53;20963;-67
2021/06/30 12:30:24;;;;;;;2.42;0.55;;;21.50;74.40;;;;;;2344490;53;20964;-68
2021/06/30 12:32:56;;;;;;;1.35;0.60;;;21.60;74.30;;;;;;2347954;54;21987;-69
2021/06/30 12:35:34;;;;;;;1.50;0.60;;;21.70;74.20;;;;;;2345082;53;21332;-69
2021/06/30 12:38:04;;;;;;;0.88;0.45;;;21.70;74.20;;;;;;2343254;53;21514;-69
2021/06/30 12:40:45;;;;;;;1.48;0.68;;;21.80;74.40;;;;;;2345450;53;21112;-68
2021/06/30 12:43:16;;;;;;;0.98;0.40;;;21.90;73.60;;;;;;2332710;53;20970;-67
2021/06/30 12:45:51;;;;;;;0.85;0.40;;;22.00;74.20;;;;;;2347711;53;21811;-69
2021/06/30 12:48:21;;;;;;;1.58;0.60;;;22.10;73.50;;;;;;2348465;53;20942;-68
2021/06/30 12:50:52;;;;;;;1.05;0.50;;;22.10;73.40;;;;;;2345936;53;21836;-68
2021/06/30 12:53:25;;;;;;;1.48;0.40;;;22.20;72.80;;;;;;2368679;53;20999;-70
2021/06/30 12:56:42;;;;;;;1.35;0.62;;;22.20;72.10;;;;;;2328394;53;21890;-68
2021/06/30 12:59:16;;;;;;;0.75;0.47;;;22.20;69.80;;;;;;2345466;53;20971;-69